createdAt,value
2022-12-23T00:00:45.574Z,88.48
2022-12-23T00:03:13.174Z,88.56
2022-12-23T00:05:41.518Z,88.68
2022-12-23T00:08:08.992Z,88.93
2022-12-23T00:10:40.286Z,88.87
2022-12-23T00:13:28.412Z,88.96
2022-12-23T00:16:05.406Z,89.25
2022-12-23T00:18:33.687Z,89.33
2022-12-23T00:21:08.550Z,89.41
2022-12-23T00:23:40.448Z,89.38
2022-12-23T00:26:20.234Z,89.23
2022-12-23T00:28:48.163Z,89.16
2022-12-23T00:31:18.747Z,89.15
2022-12-23T00:33:49.435Z,89.14
2022-12-23T00:36:28.803Z,89.19
2022-12-23T00:39:17.569Z,89.19
2022-12-23T00:42:04.628Z,89.08
2022-12-23T00:44:32.145Z,89.08
2022-12-23T00:46:59.670Z,89.00
2022-12-23T00:49:42.269Z,88.87
2022-12-23T00:52:13.868Z,89.06
2022-12-23T00:54:41.613Z,89.08
2022-12-23T00:57:08.997Z,89.11
2022-12-23T00:59:36.424Z,89.08
2022-12-23T01:02:22.942Z,89.11
2022-12-23T01:05:09.205Z,89.26
2022-12-23T01:07:36.640Z,89.29
2022-12-23T01:10:04.542Z,89.21
2022-12-23T01:12:31.912Z,89.40
2022-12-23T01:14:59.368Z,89.69
2022-12-23T01:17:26.823Z,90.01
2022-12-23T01:19:54.341Z,90.19
2022-12-23T01:22:21.680Z,90.15
2022-12-23T01:24:49.077Z,90.22
2022-12-23T01:27:16.443Z,90.21
2022-12-23T01:29:43.866Z,90.27
2022-12-23T01:32:11.476Z,90.28
2022-12-23T01:34:39.762Z,90.14
2022-12-23T01:37:10.343Z,90.01
2022-12-23T01:39:37.737Z,89.93
2022-12-23T01:42:32.058Z,89.90
2022-12-23T01:45:04.600Z,89.87
2022-12-23T01:47:43.129Z,89.86
2022-12-23T01:50:16.197Z,89.95
2022-12-23T01:53:01.721Z,90.04
2022-12-23T01:55:42.954Z,90.24
2022-12-23T01:58:25.237Z,90.57
2022-12-23T02:01:15.945Z,90.68
2022-12-23T02:03:45.290Z,90.91
2022-12-23T02:06:44.608Z,90.96
2022-12-23T02:09:23.498Z,90.99
2022-12-23T02:12:43.456Z,90.86
2022-12-23T02:15:41.691Z,90.93
2022-12-23T02:18:46.182Z,90.72
2022-12-23T02:21:38.008Z,90.66
2022-12-23T02:24:37.887Z,90.93
2022-12-23T02:27:16.460Z,90.88
2022-12-23T02:30:25.283Z,91.02
2022-12-23T02:33:19.687Z,90.88
2022-12-23T02:35:55.596Z,90.91
2022-12-23T02:38:44.740Z,90.58
2022-12-23T02:42:06.330Z,90.55
2022-12-23T02:44:40.960Z,90.74
2022-12-23T02:47:19.879Z,90.59
2022-12-23T02:49:55.752Z,90.86
2022-12-23T02:52:32.299Z,91.31
2022-12-23T02:55:10.715Z,91.29
2022-12-23T02:57:42.743Z,91.43
2022-12-23T03:00:11.753Z,92.11
2022-12-23T03:02:41.826Z,93.04
2022-12-23T03:05:34.945Z,93.77
2022-12-23T03:08:06.527Z,93.87
2022-12-23T03:11:02.991Z,93.75
2022-12-23T03:14:03.711Z,93.61
2022-12-23T03:17:22.764Z,93.69
2022-12-23T03:20:14.534Z,93.66
2022-12-23T03:23:18.821Z,93.46
2022-12-23T03:26:10.776Z,93.40
2022-12-23T03:28:46.303Z,93.25
2022-12-23T03:31:23.582Z,92.42
2022-12-23T03:34:02.732Z,91.82
2022-12-23T03:36:40.087Z,91.64
2022-12-23T03:39:16.097Z,92.09
2022-12-23T03:41:55.672Z,92.39
2022-12-23T03:44:31.811Z,92.26
2022-12-23T03:47:13.377Z,91.48
2022-12-23T03:49:49.414Z,91.44
2022-12-23T03:52:25.145Z,91.76
2022-12-23T03:55:01.824Z,92.19
2022-12-23T03:57:40.323Z,92.64
2022-12-23T04:00:08.379Z,93.32
2022-12-23T04:03:11.268Z,93.71
2022-12-23T04:05:42.463Z,93.90
2022-12-23T04:08:19.452Z,93.97
2022-12-23T04:10:47.450Z,94.04
2022-12-23T04:13:14.884Z,94.02
2022-12-23T04:15:43.304Z,93.98
2022-12-23T04:18:11.596Z,93.92
2022-12-23T04:20:38.928Z,93.79
2022-12-23T04:23:06.444Z,93.65
2022-12-23T04:25:33.847Z,93.50
2022-12-23T04:28:02.092Z,93.40
2022-12-23T04:30:33.978Z,93.32
2022-12-23T04:33:02.475Z,93.25
2022-12-23T04:35:30.445Z,93.14
2022-12-23T04:37:57.880Z,92.98
2022-12-23T04:40:25.317Z,92.85
2022-12-23T04:42:52.716Z,92.73
2022-12-23T04:45:20.193Z,92.61
2022-12-23T04:47:47.579Z,92.37
2022-12-23T04:50:17.877Z,92.18
2022-12-23T04:52:45.378Z,92.28
2022-12-23T04:55:12.960Z,92.23
2022-12-23T04:57:40.469Z,92.36
2022-12-23T05:00:08.987Z,93.02
2022-12-23T05:02:36.522Z,93.51
2022-12-23T05:05:04.482Z,93.81
2022-12-23T05:07:31.901Z,93.94
2022-12-23T05:10:01.908Z,93.70
2022-12-23T05:12:30.631Z,93.37
2022-12-23T05:14:58.061Z,93.05
2022-12-23T05:17:25.475Z,93.02
2022-12-23T05:19:52.870Z,92.91
2022-12-23T05:22:20.263Z,92.60
2022-12-23T05:24:47.597Z,92.17
2022-12-23T05:27:14.980Z,91.98
2022-12-23T05:29:42.572Z,91.88
2022-12-23T05:32:10.220Z,92.17
2022-12-23T05:34:37.830Z,92.36
2022-12-23T05:37:05.291Z,92.32
2022-12-23T05:39:32.698Z,92.24
2022-12-23T05:42:00.141Z,92.07
2022-12-23T05:44:27.648Z,92.17
2022-12-23T05:46:55.029Z,92.29
2022-12-23T05:49:22.820Z,92.50
2022-12-23T05:51:50.260Z,92.45
2022-12-23T05:54:17.711Z,92.26
2022-12-23T05:56:45.046Z,92.19
2022-12-23T05:59:12.592Z,92.10
2022-12-23T06:01:40.021Z,92.20
2022-12-23T06:04:07.657Z,92.41
2022-12-23T06:06:35.287Z,92.50
2022-12-23T06:09:02.704Z,92.51
2022-12-23T06:11:30.168Z,92.86
2022-12-23T06:13:57.672Z,92.93
2022-12-23T06:16:25.265Z,92.92
2022-12-23T06:19:10.467Z,93.07
2022-12-23T06:21:37.835Z,93.20
2022-12-23T06:24:05.937Z,93.18
2022-12-23T06:26:34.341Z,93.15
2022-12-23T06:29:02.324Z,93.32
2022-12-23T06:31:29.798Z,93.38
2022-12-23T06:33:57.275Z,93.34
2022-12-23T06:36:31.667Z,93.40
2022-12-23T06:38:59.052Z,93.33
2022-12-23T06:41:26.451Z,93.41
2022-12-23T06:43:54.614Z,93.33
2022-12-23T06:46:22.277Z,92.95
2022-12-23T06:48:49.653Z,92.97
2022-12-23T06:51:17.083Z,92.61
2022-12-23T06:53:44.525Z,92.04
2022-12-23T06:56:11.985Z,91.54
2022-12-23T06:58:39.415Z,90.98
2022-12-23T07:01:06.854Z,90.51
2022-12-23T07:03:34.541Z,89.77
2022-12-23T07:06:02.087Z,89.23
2022-12-23T07:08:29.447Z,89.09
2022-12-23T07:11:01.978Z,88.55
2022-12-23T07:13:30.665Z,88.23
2022-12-23T07:15:58.148Z,88.00
2022-12-23T07:18:26.184Z,87.73
2022-12-23T07:20:53.621Z,85.15
2022-12-23T07:23:21.075Z,76.77
2022-12-23T07:25:48.460Z,67.99
2022-12-23T07:28:15.876Z,64.47
2022-12-23T07:30:44.541Z,67.27
2022-12-23T07:33:11.900Z,71.02
2022-12-23T07:35:39.385Z,73.38
2022-12-23T07:38:06.777Z,73.19
2022-12-23T07:40:34.416Z,69.60
2022-12-23T07:43:02.410Z,63.67
2022-12-23T07:45:30.270Z,58.48
2022-12-23T07:48:00.809Z,54.34
2022-12-23T07:50:28.491Z,51.11
2022-12-23T07:52:57.693Z,47.07
2022-12-23T07:55:25.092Z,45.97
2022-12-23T07:57:53.771Z,47.17
2022-12-23T08:00:21.721Z,44.52
2022-12-23T08:02:49.459Z,42.35
2022-12-23T08:05:16.940Z,40.99
2022-12-23T08:07:49.819Z,41.52
2022-12-23T08:10:17.308Z,40.45
2022-12-23T08:12:46.437Z,38.63
2022-12-23T08:15:13.949Z,40.12
2022-12-23T08:17:41.373Z,42.45
2022-12-23T08:20:09.342Z,39.85
2022-12-23T08:22:36.873Z,39.03
2022-12-23T08:25:04.549Z,37.47
2022-12-23T08:27:31.869Z,37.64
2022-12-23T08:29:59.239Z,37.10
2022-12-23T08:32:28.485Z,37.76
2022-12-23T08:34:57.674Z,35.54
2022-12-23T08:37:25.449Z,37.82
2022-12-23T08:39:52.958Z,38.38
2022-12-23T08:42:20.238Z,39.52
2022-12-23T08:44:47.586Z,40.85
2022-12-23T08:47:14.885Z,44.71
2022-12-23T08:49:42.408Z,45.83
2022-12-23T08:52:09.692Z,45.28
2022-12-23T08:54:37.029Z,45.53
2022-12-23T08:57:04.495Z,43.66
2022-12-23T08:59:31.892Z,47.30
2022-12-23T09:02:02.063Z,45.48
2022-12-23T09:04:29.680Z,43.51
2022-12-23T09:06:57.067Z,41.87
2022-12-23T09:09:24.459Z,40.03
2022-12-23T09:11:51.931Z,37.84
2022-12-23T09:14:19.390Z,36.42
2022-12-23T09:16:50.527Z,34.92
2022-12-23T09:19:18.045Z,35.24
2022-12-23T09:21:45.303Z,34.48
2022-12-23T09:24:12.664Z,32.91
2022-12-23T09:26:40.098Z,34.57
2022-12-23T09:29:07.585Z,34.85
2022-12-23T09:31:37.738Z,35.74
2022-12-23T09:34:06.340Z,34.51
2022-12-23T09:36:33.993Z,33.79
2022-12-23T09:39:01.411Z,33.93
2022-12-23T09:41:53.431Z,35.62
2022-12-23T09:45:11.348Z,35.76
2022-12-23T09:47:41.548Z,38.12
2022-12-23T09:50:25.651Z,39.64
2022-12-23T09:53:08.469Z,40.15
2022-12-23T09:56:01.708Z,39.49
2022-12-23T09:58:39.922Z,39.29
2022-12-23T10:01:56.440Z,37.26
2022-12-23T10:05:03.371Z,35.50
2022-12-23T10:08:04.229Z,37.79
2022-12-23T10:10:56.610Z,37.73
2022-12-23T10:14:02.041Z,37.75
2022-12-23T10:16:38.396Z,37.87
2022-12-23T10:19:41.871Z,38.26
2022-12-23T10:22:17.169Z,37.91
2022-12-23T10:24:48.373Z,38.31
2022-12-23T10:27:31.187Z,38.26
2022-12-23T10:30:34.265Z,38.07
2022-12-23T10:33:37.292Z,37.18
2022-12-23T10:36:23.554Z,36.05
2022-12-23T10:39:19.214Z,34.57
2022-12-23T10:42:14.970Z,35.57
2022-12-23T10:44:54.046Z,35.31
2022-12-23T10:48:06.062Z,34.94
2022-12-23T10:50:49.944Z,33.61
2022-12-23T10:53:36.863Z,34.19
2022-12-23T10:56:06.368Z,35.18
2022-12-23T10:58:41.137Z,35.88
2022-12-23T11:01:16.200Z,35.08
2022-12-23T11:04:01.723Z,34.39
2022-12-23T11:06:37.182Z,34.44
2022-12-23T11:09:23.869Z,32.51
2022-12-23T11:11:59.263Z,28.94
2022-12-23T11:14:34.998Z,32.21
2022-12-23T11:17:04.999Z,32.20
2022-12-23T11:19:32.420Z,32.04
2022-12-23T11:23:39.809Z,29.96
2022-12-23T11:26:13.252Z,30.85
2022-12-23T11:28:52.970Z,34.10
2022-12-23T11:31:35.281Z,33.53
2022-12-23T11:34:07.236Z,31.36
2022-12-23T11:36:35.359Z,32.00
2022-12-23T11:39:32.403Z,32.89
2022-12-23T11:42:18.780Z,34.85
2022-12-23T11:44:52.014Z,34.66
2022-12-23T11:47:22.513Z,36.70
2022-12-23T11:49:56.715Z,35.93
2022-12-23T11:52:31.122Z,35.45
2022-12-23T11:55:05.888Z,36.72
2022-12-23T11:57:48.980Z,37.89
2022-12-23T12:00:27.639Z,41.28
2022-12-23T12:03:00.406Z,45.66
2022-12-23T12:05:46.681Z,45.30
2022-12-23T12:08:20.226Z,47.45
2022-12-23T12:10:53.085Z,47.84
2022-12-23T12:13:30.759Z,47.62
2022-12-23T12:16:14.364Z,47.61
2022-12-23T12:18:50.477Z,48.07
2022-12-23T12:21:27.248Z,48.45
2022-12-23T12:24:18.941Z,48.98
2022-12-23T12:26:54.424Z,50.06
2022-12-23T12:29:39.007Z,49.78
2022-12-23T12:32:34.866Z,50.43
2022-12-23T12:35:14.565Z,49.67
2022-12-23T12:38:02.491Z,49.62
2022-12-23T12:40:47.321Z,50.09
2022-12-23T12:43:33.415Z,49.89
2022-12-23T12:46:30.845Z,50.17
2022-12-23T12:49:25.113Z,49.58
2022-12-23T12:52:02.462Z,50.57
2022-12-23T12:54:51.707Z,49.66
2022-12-23T12:57:23.536Z,51.55
2022-12-23T13:00:01.627Z,51.36
2022-12-23T13:02:44.671Z,50.60
2022-12-23T13:06:05.102Z,50.15
2022-12-23T13:09:00.535Z,50.50
2022-12-23T13:12:01.742Z,49.74
2022-12-23T13:14:50.134Z,50.15
2022-12-23T13:17:17.545Z,50.39
2022-12-23T13:19:59.393Z,49.83
2022-12-23T13:22:34.373Z,51.23
2022-12-23T13:25:14.011Z,52.25
2022-12-23T13:27:55.420Z,53.32
2022-12-23T13:30:27.065Z,51.55
2022-12-23T13:33:28.294Z,50.51
2022-12-23T13:36:36.452Z,50.84
2022-12-23T13:39:38.461Z,50.95
2022-12-23T13:42:13.723Z,51.31
2022-12-23T13:44:41.667Z,51.88
2022-12-23T13:47:45.631Z,51.69
2022-12-23T13:50:33.409Z,52.54
2022-12-23T13:53:06.649Z,53.44
2022-12-23T13:56:26.996Z,53.23
2022-12-23T13:58:54.957Z,54.05
2022-12-23T14:01:44.006Z,52.22
2022-12-23T14:04:35.897Z,52.90
2022-12-23T14:07:24.227Z,53.72
2022-12-23T14:09:58.798Z,53.57
2022-12-23T14:12:30.980Z,53.62
2022-12-23T14:15:25.000Z,53.97
2022-12-23T14:18:31.273Z,54.94
2022-12-23T14:21:25.869Z,54.54
2022-12-23T14:23:59.575Z,54.81
2022-12-23T14:26:50.126Z,54.98
2022-12-23T14:29:43.541Z,55.63
2022-12-23T14:32:27.993Z,55.62
2022-12-23T14:35:23.169Z,55.65
2022-12-23T14:38:13.920Z,55.87
2022-12-23T14:40:59.498Z,57.02
2022-12-23T14:43:42.915Z,56.64
2022-12-23T14:46:35.901Z,56.87
2022-12-23T14:49:39.434Z,56.26
2022-12-23T14:52:40.809Z,56.43
2022-12-23T14:55:32.638Z,56.91
2022-12-23T14:58:20.316Z,57.44
2022-12-23T15:00:55.198Z,57.35
2022-12-23T15:03:23.224Z,57.08
2022-12-23T15:05:51.342Z,57.73
2022-12-23T15:08:37.219Z,58.30
2022-12-23T15:11:09.314Z,58.45
2022-12-23T15:13:38.005Z,58.73
2022-12-23T15:16:05.816Z,59.13
2022-12-23T15:18:33.299Z,59.39
2022-12-23T15:21:04.642Z,59.43
2022-12-23T15:23:33.322Z,60.44
2022-12-23T15:26:02.389Z,60.80
2022-12-23T15:28:38.624Z,60.59
2022-12-23T15:31:35.142Z,60.37
2022-12-23T15:34:16.546Z,60.77
2022-12-23T15:36:45.822Z,61.55
2022-12-23T15:39:25.044Z,62.77
2022-12-23T15:41:52.409Z,63.71
2022-12-23T15:44:24.658Z,63.75
2022-12-23T15:46:53.580Z,64.48
2022-12-23T15:49:21.807Z,64.66
2022-12-23T15:52:08.711Z,64.59
2022-12-23T15:54:45.473Z,64.56
2022-12-23T15:57:19.498Z,64.54
2022-12-23T15:59:47.658Z,64.93
2022-12-23T16:05:35.253Z,66.98
2022-12-23T16:08:29.778Z,67.37
2022-12-23T16:11:00.612Z,67.05
2022-12-23T16:13:28.273Z,68.13
2022-12-23T16:16:38.530Z,68.56
2022-12-23T16:19:27.152Z,69.50
2022-12-23T16:21:54.568Z,69.94
2022-12-23T16:24:22.146Z,69.96
2022-12-23T16:26:49.516Z,69.56
2022-12-23T16:29:17.025Z,69.56
2022-12-23T16:31:52.178Z,69.51
2022-12-23T16:34:24.980Z,69.26
2022-12-23T16:36:52.441Z,69.60
2022-12-23T16:39:23.159Z,70.24
2022-12-23T16:41:51.050Z,70.93
2022-12-23T16:44:18.516Z,71.23
2022-12-23T16:46:49.566Z,71.41
2022-12-23T16:49:21.568Z,71.01
2022-12-23T16:51:49.604Z,70.58
2022-12-23T16:54:20.386Z,70.88
2022-12-23T16:56:47.938Z,70.81
2022-12-23T16:59:15.754Z,70.87
2022-12-23T17:01:46.813Z,71.17
2022-12-23T17:04:14.963Z,71.24
2022-12-23T17:06:42.519Z,71.50
2022-12-23T17:09:11.305Z,71.24
2022-12-23T17:11:44.705Z,71.84
2022-12-23T17:14:24.662Z,72.21
2022-12-23T17:16:52.710Z,72.47
2022-12-23T17:19:27.993Z,72.79
2022-12-23T17:22:02.655Z,72.77
2022-12-23T17:24:30.167Z,72.75
2022-12-23T17:26:58.249Z,72.48
2022-12-23T17:29:25.765Z,72.40
2022-12-23T17:31:54.074Z,72.40
2022-12-23T17:34:24.438Z,72.45
2022-12-23T17:36:52.806Z,72.58
2022-12-23T17:39:21.896Z,72.58
2022-12-23T17:41:49.720Z,72.67
2022-12-23T17:44:18.829Z,73.02
2022-12-23T17:46:46.972Z,72.89
2022-12-23T17:49:14.682Z,73.54
2022-12-23T17:51:42.981Z,73.61
2022-12-23T17:54:23.200Z,73.58
2022-12-23T17:56:51.276Z,73.76
2022-12-23T17:59:19.002Z,73.90
2022-12-23T18:01:46.717Z,74.32
2022-12-23T18:04:14.485Z,74.52
2022-12-23T18:06:42.048Z,74.63
2022-12-23T18:09:09.534Z,74.68
2022-12-23T18:11:43.739Z,74.81
2022-12-23T18:14:19.803Z,74.97
2022-12-23T18:16:47.343Z,75.19
2022-12-23T18:19:20.354Z,75.61
2022-12-23T18:21:48.384Z,76.39
2022-12-23T18:24:16.493Z,76.41
2022-12-23T18:26:45.192Z,76.28
2022-12-23T18:29:14.632Z,76.47
2022-12-23T18:31:51.077Z,76.45
2022-12-23T18:34:20.666Z,76.73
2022-12-23T18:36:48.792Z,77.00
2022-12-23T18:39:16.369Z,77.04
2022-12-23T18:41:43.769Z,76.88
2022-12-23T18:44:20.355Z,76.95
2022-12-23T18:46:48.682Z,77.15
2022-12-23T18:49:16.147Z,77.18
2022-12-23T18:51:43.704Z,77.65
2022-12-23T18:54:15.390Z,77.78
2022-12-23T18:56:43.670Z,77.63
2022-12-23T18:59:27.408Z,77.68
2022-12-23T19:01:57.988Z,77.68
2022-12-23T19:04:26.959Z,77.84
2022-12-23T19:06:55.932Z,77.66
2022-12-23T19:09:25.156Z,77.73
2022-12-23T19:11:54.309Z,77.95
2022-12-23T19:14:22.235Z,78.20
2022-12-23T19:16:52.199Z,78.35
2022-12-23T19:19:21.041Z,78.46
2022-12-23T19:21:48.546Z,78.47
2022-12-23T19:24:16.129Z,78.22
2022-12-23T19:26:43.549Z,78.23
2022-12-23T19:29:11.002Z,78.11
2022-12-23T19:31:38.575Z,78.16
2022-12-23T19:34:11.089Z,78.32
2022-12-23T19:36:42.306Z,78.46
2022-12-23T19:39:16.162Z,78.66
2022-12-23T19:41:44.165Z,78.88
2022-12-23T19:44:11.577Z,78.88
2022-12-23T19:46:39.122Z,78.81
2022-12-23T19:49:06.543Z,78.61
2022-12-23T19:51:34.033Z,78.68
2022-12-23T19:54:01.516Z,78.68
2022-12-23T19:56:30.404Z,78.93
2022-12-23T19:58:58.165Z,79.15
2022-12-23T20:01:27.251Z,79.40
2022-12-23T20:03:56.200Z,79.75
2022-12-23T20:06:28.066Z,79.34
2022-12-23T20:09:00.585Z,78.86
2022-12-23T20:11:30.814Z,78.69
2022-12-23T20:14:00.224Z,78.25
2022-12-23T20:16:29.354Z,77.95
2022-12-23T20:18:57.512Z,77.65
2022-12-23T20:21:25.359Z,77.53
2022-12-23T20:23:53.602Z,77.74
2022-12-23T20:26:21.503Z,77.72
2022-12-23T20:28:49.033Z,77.69
2022-12-23T20:31:20.955Z,77.76
2022-12-23T20:33:51.724Z,78.06
2022-12-23T20:36:29.128Z,78.25
2022-12-23T20:38:57.762Z,78.19
2022-12-23T20:41:28.785Z,77.90
2022-12-23T20:46:46.179Z,77.93
2022-12-23T20:49:13.673Z,77.79
2022-12-23T20:51:41.236Z,77.67
2022-12-23T20:54:09.290Z,77.70
2022-12-23T20:56:36.769Z,77.85
2022-12-23T20:59:04.249Z,78.06
2022-12-23T21:01:36.485Z,78.36
2022-12-23T21:04:07.984Z,78.57
2022-12-23T21:06:36.745Z,78.81
2022-12-23T21:09:07.465Z,79.01
2022-12-23T21:11:41.605Z,78.95
2022-12-23T21:14:09.628Z,78.86
2022-12-23T21:16:38.251Z,78.73
2022-12-23T21:19:08.712Z,78.35
2022-12-23T21:21:36.461Z,78.13
2022-12-23T21:24:05.156Z,78.12
2022-12-23T21:26:35.290Z,78.02
2022-12-23T21:29:05.808Z,77.77
2022-12-23T21:31:37.882Z,77.94
2022-12-23T21:34:06.463Z,77.94
2022-12-23T21:36:37.477Z,78.22
2022-12-23T21:39:06.922Z,78.23
2022-12-23T21:41:38.838Z,77.98
2022-12-23T21:44:06.732Z,78.11
2022-12-23T21:46:34.421Z,78.34
2022-12-23T21:49:02.133Z,78.64
2022-12-23T21:51:39.543Z,79.17
2022-12-23T21:54:09.528Z,79.04
2022-12-23T21:56:37.495Z,78.88
2022-12-23T21:59:10.186Z,79.70
2022-12-23T22:01:37.680Z,80.18
2022-12-23T22:04:05.630Z,80.32
2022-12-23T22:06:41.679Z,80.54
2022-12-23T22:09:20.460Z,80.84
2022-12-23T22:11:48.490Z,81.11
2022-12-23T22:14:22.088Z,80.76
2022-12-23T22:16:49.569Z,80.54
2022-12-23T22:19:17.221Z,80.04
2022-12-23T22:21:44.663Z,79.74
2022-12-23T22:24:12.365Z,79.29
2022-12-23T22:26:40.947Z,78.98
2022-12-23T22:29:08.329Z,78.65
2022-12-23T22:31:44.444Z,78.50
2022-12-23T22:34:22.890Z,78.45
2022-12-23T22:36:50.236Z,78.55
2022-12-23T22:39:21.675Z,78.66
2022-12-23T22:41:53.019Z,78.96
2022-12-23T22:44:21.102Z,79.20
2022-12-23T22:46:48.980Z,79.68
2022-12-23T22:49:16.906Z,80.11
2022-12-23T22:51:45.139Z,80.28
2022-12-23T22:54:15.499Z,80.40
2022-12-23T22:56:43.131Z,80.47
2022-12-23T22:59:23.384Z,80.67
2022-12-23T23:01:53.971Z,80.62
2022-12-23T23:04:21.461Z,80.90
2022-12-23T23:06:49.182Z,80.83
2022-12-23T23:09:20.299Z,80.64
2022-12-23T23:11:49.046Z,80.53
2022-12-23T23:14:17.106Z,80.63
2022-12-23T23:16:44.911Z,80.51
2022-12-23T23:19:13.663Z,80.47
2022-12-23T23:21:41.184Z,80.37
2022-12-23T23:24:09.061Z,80.17
2022-12-23T23:26:36.605Z,79.94
2022-12-23T23:29:04.120Z,79.75
2022-12-23T23:31:42.045Z,79.68
2022-12-23T23:34:10.833Z,79.27
2022-12-23T23:36:38.458Z,79.04
2022-12-23T23:39:05.977Z,78.97
2022-12-23T23:41:33.694Z,78.76
2022-12-23T23:44:01.016Z,78.54
2022-12-23T23:46:28.949Z,78.31
2022-12-23T23:48:56.381Z,78.28
2022-12-23T23:51:24.094Z,78.07
2022-12-23T23:53:51.541Z,77.87
2022-12-23T23:56:24.791Z,77.75
2022-12-23T23:58:53.467Z,77.54
